Time;durP1;ratioP1;P1;durP2;ratioP2;P2;SDS_P1;SDS_P2;PMS_P1;PMS_P2;Temp;Humidity;BMP_temperature;BMP_pressure;BME280_temperature;BME280_humidity;BME280_pressure;Samples;Min_cycle;Max_cycle;Signal;HPM_P1;HPM_P2
2023/06/07 00:00:59;;;;;;;21.52;4.50;;;11.50;99.90;;;;;;5018478;28;20037;-83
2023/06/07 00:03:25;;;;;;;17.17;4.35;;;11.50;99.90;;;;;;5022996;28;20061;-85
2023/06/07 00:05:51;;;;;;;16.08;4.57;;;11.50;99.90;;;;;;5021839;28;20034;-84
2023/06/07 00:08:18;;;;;;;13.60;4.25;;;11.50;99.90;;;;;;5019521;28;20091;-84
2023/06/07 00:10:43;;;;;;;20.05;4.82;;;11.50;99.90;;;;;;5008057;28;20545;-84
2023/06/07 00:13:09;;;;;;;16.58;4.35;;;11.50;99.90;;;;;;5022313;28;20129;-85
2023/06/07 00:15:35;;;;;;;15.15;4.20;;;11.50;99.90;;;;;;5017431;28;20124;-85
2023/06/07 00:18:01;;;;;;;15.85;4.13;;;11.50;99.90;;;;;;5022372;28;20040;-84
2023/06/07 00:20:27;;;;;;;14.60;4.28;;;11.50;99.90;;;;;;5022776;28;20046;-85
2023/06/07 00:22:56;;;;;;;18.02;4.68;;;11.40;99.90;;;;;;5017296;28;20103;-84
2023/06/07 00:25:22;;;;;;;14.45;4.55;;;11.50;99.90;;;;;;5022203;28;20132;-86
2023/06/07 00:27:48;;;;;;;12.35;4.35;;;11.50;99.90;;;;;;5022195;28;20589;-85
2023/06/07 00:30:17;;;;;;;13.55;4.63;;;11.40;99.90;;;;;;5004333;28;20041;-85
2023/06/07 00:32:43;;;;;;;16.42;4.55;;;11.40;99.90;;;;;;5020995;28;20061;-84
2023/06/07 00:35:10;;;;;;;17.55;4.60;;;11.50;99.90;;;;;;5023442;28;20047;-84
2023/06/07 00:37:36;;;;;;;17.17;4.07;;;11.50;99.90;;;;;;5022397;28;20049;-82
2023/06/07 00:40:01;;;;;;;13.07;4.60;;;11.50;99.90;;;;;;5022922;28;20046;-82
2023/06/07 00:42:27;;;;;;;12.90;4.35;;;11.50;99.90;;;;;;5020547;28;20136;-84
2023/06/07 00:44:52;;;;;;;18.13;4.90;;;11.40;99.90;;;;;;5019440;28;20045;-84
2023/06/07 00:47:18;;;;;;;15.25;4.38;;;11.40;99.90;;;;;;5015415;28;20041;-84
2023/06/07 00:49:44;;;;;;;16.30;4.43;;;11.40;99.90;;;;;;5021900;28;20100;-85
2023/06/07 00:52:11;;;;;;;15.38;4.43;;;11.40;99.90;;;;;;5018828;28;20105;-83
2023/06/07 00:54:37;;;;;;;16.67;4.68;;;11.40;99.90;;;;;;5040304;28;20052;-84
2023/06/07 00:57:05;;;;;;;18.05;4.80;;;11.40;99.90;;;;;;5021119;28;20041;-84
2023/06/07 00:59:31;;;;;;;12.80;4.35;;;11.40;99.90;;;;;;5019627;28;20484;-84
2023/06/07 01:01:57;;;;;;;18.25;5.07;;;11.40;99.90;;;;;;5016861;28;20042;-83
2023/06/07 01:04:24;;;;;;;18.58;5.55;;;11.40;99.90;;;;;;5031784;28;20050;-85
2023/06/07 01:06:53;;;;;;;14.73;4.82;;;11.40;99.90;;;;;;5019321;28;20049;-85
2023/06/07 01:09:20;;;;;;;18.02;5.03;;;11.40;99.90;;;;;;5006558;28;20094;-86
2023/06/07 01:11:52;;;;;;;21.83;5.68;;;11.40;99.90;;;;;;5001612;28;20199;-86
2023/06/07 01:14:19;;;;;;;16.85;4.47;;;11.40;99.90;;;;;;5017965;28;20044;-84
2023/06/07 01:16:50;;;;;;;17.50;4.95;;;11.40;99.90;;;;;;5019736;28;20037;-84
2023/06/07 01:19:23;;;;;;;22.17;5.32;;;11.40;99.90;;;;;;5017074;28;20049;-84
2023/06/07 01:21:51;;;;;;;21.02;4.85;;;11.40;99.90;;;;;;5009885;28;20037;-84
2023/06/07 01:24:18;;;;;;;21.35;4.75;;;11.40;99.90;;;;;;5020324;28;20102;-84
2023/06/07 01:26:46;;;;;;;21.83;5.93;;;11.40;99.90;;;;;;5026168;28;20181;-83
2023/06/07 01:29:12;;;;;;;17.30;4.63;;;11.40;99.90;;;;;;5023339;28;20527;-84
2023/06/07 01:31:40;;;;;;;19.63;4.47;;;11.40;99.90;;;;;;5021711;28;20041;-83
2023/06/07 01:34:07;;;;;;;14.25;4.20;;;11.40;99.90;;;;;;5017054;28;20400;-83
2023/06/07 01:36:34;;;;;;;17.63;4.88;;;11.40;99.90;;;;;;5001727;28;20061;-83
2023/06/07 01:39:02;;;;;;;19.25;4.60;;;11.40;99.90;;;;;;5020521;28;20060;-84
2023/06/07 01:41:29;;;;;;;16.65;4.30;;;11.40;99.90;;;;;;5020357;28;20049;-84
2023/06/07 01:43:56;;;;;;;16.02;4.18;;;11.40;99.90;;;;;;5022344;28;20175;-84
2023/06/07 01:46:22;;;;;;;19.55;4.10;;;11.40;99.90;;;;;;5018373;28;20414;-85
2023/06/07 01:48:48;;;;;;;13.63;4.28;;;11.40;99.90;;;;;;5025397;28;20034;-85
2023/06/07 01:51:15;;;;;;;16.13;3.90;;;11.40;99.90;;;;;;5018293;28;20046;-83
2023/06/07 01:53:41;;;;;;;22.10;5.47;;;11.40;99.90;;;;;;5019965;28;20115;-85
2023/06/07 01:56:14;;;;;;;15.40;4.50;;;11.40;99.90;;;;;;5016808;28;20334;-84
2023/06/07 01:59:12;;;;;;;17.80;4.75;;;11.40;99.90;;;;;;5018547;28;20052;-84
2023/06/07 02:02:03;;;;;;;19.23;4.38;;;11.40;99.90;;;;;;5005625;28;20455;-84
2023/06/07 02:04:31;;;;;;;13.93;4.32;;;11.40;99.90;;;;;;5020225;28;20041;-85
2023/06/07 02:07:03;;;;;;;18.05;4.78;;;11.40;99.90;;;;;;5016617;28;20041;-83
2023/06/07 02:09:30;;;;;;;13.90;4.05;;;11.40;99.90;;;;;;5012679;28;20037;-84
2023/06/07 02:11:57;;;;;;;17.02;5.30;;;11.40;99.90;;;;;;5020012;28;20042;-85
2023/06/07 02:14:25;;;;;;;19.50;4.18;;;11.40;99.90;;;;;;5015063;28;20045;-85
2023/06/07 02:16:51;;;;;;;17.13;4.80;;;11.50;99.90;;;;;;5008470;28;20050;-85
2023/06/07 02:19:17;;;;;;;12.48;3.90;;;11.50;99.90;;;;;;5015015;28;20042;-83
2023/06/07 02:21:42;;;;;;;11.40;4.43;;;11.50;99.90;;;;;;4999001;28;20049;-84
2023/06/07 02:24:08;;;;;;;18.63;4.00;;;11.50;99.90;;;;;;5016089;28;20041;-84
2023/06/07 02:26:35;;;;;;;15.77;4.68;;;11.50;99.90;;;;;;5019819;28;20128;-84
2023/06/07 02:29:02;;;;;;;21.42;4.90;;;11.50;99.90;;;;;;5016133;28;20042;-85
2023/06/07 02:31:28;;;;;;;17.23;4.03;;;11.50;99.90;;;;;;5017975;28;20050;-85
2023/06/07 02:33:54;;;;;;;21.83;4.43;;;11.50;99.90;;;;;;5020593;28;20061;-85
2023/06/07 02:36:21;;;;;;;14.77;4.10;;;11.60;99.90;;;;;;5017081;28;20440;-84
2023/06/07 02:38:48;;;;;;;22.67;4.75;;;11.60;99.90;;;;;;5020345;28;20042;-84
2023/06/07 02:41:14;;;;;;;13.23;4.45;;;11.60;99.90;;;;;;5022875;28;20121;-84
2023/06/07 02:43:39;;;;;;;21.95;4.25;;;11.60;99.90;;;;;;5025208;28;20140;-83
2023/06/07 02:46:06;;;;;;;12.38;4.00;;;11.60;99.90;;;;;;5022454;28;20045;-83
2023/06/07 02:48:32;;;;;;;17.35;4.13;;;11.60;99.90;;;;;;5023659;28;20488;-84
2023/06/07 02:50:57;;;;;;;13.93;3.70;;;11.60;99.90;;;;;;5016714;28;20053;-83
2023/06/07 02:53:24;;;;;;;17.30;4.13;;;11.70;99.90;;;;;;5019937;28;20412;-85
2023/06/07 02:55:51;;;;;;;19.27;5.75;;;11.60;99.90;;;;;;5021926;28;20530;-83
2023/06/07 02:58:16;;;;;;;16.08;4.20;;;11.70;99.90;;;;;;5020233;28;20045;-81
2023/06/07 03:00:44;;;;;;;18.70;4.25;;;11.70;99.90;;;;;;5019626;28;20059;-83
2023/06/07 03:03:10;;;;;;;16.33;4.47;;;11.70;99.90;;;;;;5018528;28;20534;-84
2023/06/07 03:05:36;;;;;;;18.27;4.15;;;11.60;99.90;;;;;;5026131;28;20112;-83
2023/06/07 03:08:02;;;;;;;20.27;4.15;;;11.60;99.90;;;;;;5023556;28;20056;-81
2023/06/07 03:10:28;;;;;;;15.88;4.10;;;11.60;99.90;;;;;;5016670;28;20053;-83
2023/06/07 03:12:53;;;;;;;16.58;4.93;;;11.60;99.90;;;;;;5018667;28;20406;-83
2023/06/07 03:15:22;;;;;;;16.40;4.55;;;11.60;99.90;;;;;;5025879;28;20045;-82
2023/06/07 03:17:48;;;;;;;18.63;3.92;;;11.70;99.90;;;;;;5025908;28;20046;-84
2023/06/07 03:20:13;;;;;;;21.25;4.72;;;11.70;99.90;;;;;;5025048;28;20119;-81
2023/06/07 03:22:39;;;;;;;15.23;4.10;;;11.70;99.90;;;;;;5018110;28;20843;-82
2023/06/07 03:25:06;;;;;;;17.33;4.30;;;11.70;99.90;;;;;;4985410;28;20499;-84
2023/06/07 03:27:32;;;;;;;13.25;3.72;;;11.70;99.90;;;;;;5016709;28;20034;-81
2023/06/07 03:30:02;;;;;;;16.15;4.65;;;11.70;99.90;;;;;;5019151;28;20042;-80
2023/06/07 03:32:27;;;;;;;18.77;4.38;;;11.70;99.90;;;;;;5019155;28;20044;-82
2023/06/07 03:34:53;;;;;;;19.45;4.53;;;11.70;99.90;;;;;;5023367;28;20042;-81
2023/06/07 03:37:19;;;;;;;12.95;3.90;;;11.70;99.90;;;;;;5022144;28;20063;-81
2023/06/07 03:39:47;;;;;;;14.18;4.25;;;11.80;99.90;;;;;;5002931;28;20501;-81
2023/06/07 03:42:13;;;;;;;13.52;4.00;;;11.70;99.90;;;;;;5017753;28;20317;-81
2023/06/07 03:44:38;;;;;;;17.15;4.70;;;11.80;99.90;;;;;;5021209;28;20045;-82
2023/06/07 03:47:04;;;;;;;18.40;4.40;;;11.80;99.90;;;;;;5014252;28;20045;-81
2023/06/07 03:49:30;;;;;;;18.17;4.25;;;11.80;99.90;;;;;;5000267;28;20042;-81
2023/06/07 03:51:56;;;;;;;13.93;4.03;;;11.80;99.90;;;;;;5021760;28;20045;-82
2023/06/07 03:54:21;;;;;;;17.33;4.88;;;11.80;99.90;;;;;;5020034;28;20200;-85
2023/06/07 03:56:47;;;;;;;13.25;4.13;;;11.80;99.90;;;;;;5014291;28;20042;-84
2023/06/07 03:59:13;;;;;;;16.80;4.70;;;11.80;99.90;;;;;;5020083;28;20037;-85
2023/06/07 04:01:39;;;;;;;18.08;3.83;;;11.90;99.90;;;;;;5016904;28;20042;-84
2023/06/07 04:04:05;;;;;;;19.08;4.50;;;11.90;99.90;;;;;;5003894;28;22051;-85
2023/06/07 04:06:31;;;;;;;15.00;4.75;;;11.80;99.90;;;;;;5023331;28;20037;-86
2023/06/07 04:08:57;;;;;;;17.67;4.80;;;11.90;99.90;;;;;;5000570;28;20500;-82
2023/06/07 04:11:26;;;;;;;15.45;3.83;;;11.90;99.90;;;;;;5001924;28;20246;-85
2023/06/07 04:13:51;;;;;;;15.43;4.20;;;11.90;99.90;;;;;;5013987;28;20076;-85
2023/06/07 04:16:17;;;;;;;15.52;4.78;;;11.90;99.90;;;;;;5015736;28;20072;-84
2023/06/07 04:18:43;;;;;;;11.73;3.90;;;11.90;99.90;;;;;;5017280;28;20068;-85
2023/06/07 04:21:08;;;;;;;13.50;4.07;;;11.90;99.90;;;;;;5005966;28;20200;-85
2023/06/07 04:23:34;;;;;;;16.20;3.72;;;12.00;99.90;;;;;;5016010;28;20124;-86
2023/06/07 04:26:04;;;;;;;16.95;4.45;;;11.90;99.90;;;;;;5005295;28;20077;-87
2023/06/07 04:28:30;;;;;;;12.43;4.20;;;11.90;99.90;;;;;;5020871;28;20507;-86
2023/06/07 04:30:57;;;;;;;14.88;4.20;;;12.00;99.90;;;;;;5016312;28;20041;-87
2023/06/07 04:33:23;;;;;;;16.85;4.28;;;12.00;99.90;;;;;;5019572;28;20387;-88
2023/06/07 04:35:52;;;;;;;10.57;3.88;;;12.00;99.90;;;;;;5017864;28;20052;-87
2023/06/07 04:38:21;;;;;;;9.82;3.72;;;12.00;99.90;;;;;;5020789;28;20627;-86
2023/06/07 04:40:49;;;;;;;12.23;4.35;;;12.00;99.90;;;;;;5019521;28;20159;-85
2023/06/07 04:43:18;;;;;;;14.70;4.03;;;12.00;99.90;;;;;;5017277;28;20029;-86
2023/06/07 04:45:54;;;;;;;18.88;5.28;;;12.00;99.90;;;;;;5020033;28;20095;-86
2023/06/07 04:48:28;;;;;;;12.32;4.13;;;12.00;99.90;;;;;;5021479;28;20079;-86
2023/06/07 04:51:04;;;;;;;16.23;4.95;;;12.00;99.90;;;;;;4994344;28;20073;-86
2023/06/07 04:53:35;;;;;;;12.93;4.43;;;12.10;99.90;;;;;;5017770;28;20042;-85
2023/06/07 04:56:02;;;;;;;11.73;4.00;;;12.10;99.90;;;;;;4995907;28;20045;-85
2023/06/07 04:58:27;;;;;;;17.35;4.47;;;12.10;99.90;;;;;;5018311;28;20203;-86
2023/06/07 05:00:53;;;;;;;13.45;4.60;;;12.10;99.90;;;;;;5018591;28;20380;-86
2023/06/07 05:03:22;;;;;;;10.75;3.60;;;12.10;99.90;;;;;;5001003;28;20639;-86
2023/06/07 05:05:48;;;;;;;11.20;3.40;;;12.20;99.90;;;;;;5019622;28;20536;-86
2023/06/07 05:08:15;;;;;;;12.32;3.70;;;12.20;99.90;;;;;;5019409;28;20064;-85
2023/06/07 05:10:41;;;;;;;12.57;3.72;;;12.20;99.90;;;;;;5015539;28;20061;-86
2023/06/07 05:13:07;;;;;;;16.42;4.03;;;12.30;99.90;;;;;;5012732;28;20434;-86
2023/06/07 05:15:33;;;;;;;10.60;3.28;;;12.30;99.90;;;;;;5015756;28;20061;-86
2023/06/07 05:17:59;;;;;;;11.70;3.75;;;12.30;99.90;;;;;;5005086;28;20030;-86
2023/06/07 05:20:26;;;;;;;17.98;4.22;;;12.30;99.90;;;;;;5015137;28;20049;-86
2023/06/07 05:22:52;;;;;;;12.30;3.95;;;12.30;99.90;;;;;;5002747;28;20077;-87
2023/06/07 05:25:18;;;;;;;18.55;4.32;;;12.40;99.90;;;;;;5018419;28;20113;-86
2023/06/07 05:27:44;;;;;;;14.25;4.20;;;12.40;99.90;;;;;;5025443;28;20045;-87
2023/06/07 05:30:10;;;;;;;13.65;3.80;;;12.40;99.90;;;;;;5022962;28;21393;-87
2023/06/07 05:32:36;;;;;;;15.85;3.92;;;12.50;99.90;;;;;;5036990;28;20040;-86
2023/06/07 05:35:03;;;;;;;11.23;3.75;;;12.50;99.90;;;;;;5003972;28;20038;-85
2023/06/07 05:37:30;;;;;;;13.75;3.90;;;12.50;99.90;;;;;;5020970;28;20050;-87
2023/06/07 05:39:56;;;;;;;10.60;3.55;;;12.50;99.90;;;;;;5020134;28;20056;-86
2023/06/07 05:42:25;;;;;;;15.45;4.18;;;12.60;99.90;;;;;;5003491;28;20135;-86
2023/06/07 05:44:53;;;;;;;13.55;3.50;;;12.60;99.90;;;;;;5017172;28;20033;-87
2023/06/07 05:47:25;;;;;;;14.55;4.18;;;12.70;99.90;;;;;;5004250;28;20065;-87
2023/06/07 05:49:53;;;;;;;15.85;3.53;;;12.70;99.90;;;;;;5018138;28;20064;-86
2023/06/07 05:52:19;;;;;;;13.40;4.47;;;12.70;99.90;;;;;;5018193;28;20042;-85
2023/06/07 05:54:54;;;;;;;13.95;3.97;;;12.70;99.90;;;;;;5021340;28;20523;-86
2023/06/07 05:57:22;;;;;;;15.65;3.70;;;12.70;99.90;;;;;;5018286;28;20044;-84
2023/06/07 05:59:48;;;;;;;13.02;4.20;;;12.80;99.90;;;;;;5020202;28;20057;-85
2023/06/07 06:02:16;;;;;;;17.33;4.45;;;12.80;99.90;;;;;;5016008;28;20079;-86
2023/06/07 06:04:43;;;;;;;13.48;3.90;;;12.90;99.90;;;;;;5018639;28;20295;-85
2023/06/07 06:07:09;;;;;;;11.32;3.42;;;12.90;99.90;;;;;;5016238;28;20038;-83
2023/06/07 06:09:34;;;;;;;14.30;4.55;;;12.90;99.90;;;;;;5000827;28;20550;-85
2023/06/07 06:12:00;;;;;;;12.50;4.07;;;13.00;99.90;;;;;;5005073;28;20468;-84
2023/06/07 06:14:28;;;;;;;12.75;3.70;;;13.00;99.90;;;;;;5019295;28;20050;-82
2023/06/07 06:16:54;;;;;;;12.05;3.83;;;13.10;99.90;;;;;;5025275;28;20041;-87
2023/06/07 06:19:20;;;;;;;11.57;3.55;;;13.20;99.90;;;;;;5025182;28;20040;-86
2023/06/07 06:21:45;;;;;;;12.38;3.65;;;13.20;99.90;;;;;;5015189;28;20916;-85
2023/06/07 06:24:11;;;;;;;11.45;3.90;;;13.30;99.90;;;;;;5023979;28;20072;-85
2023/06/07 06:26:37;;;;;;;15.52;4.10;;;13.30;99.90;;;;;;5018207;28;20030;-87
2023/06/07 06:29:02;;;;;;;15.68;3.60;;;13.30;99.90;;;;;;5023868;28;20459;-86
2023/06/07 06:31:28;;;;;;;15.88;3.97;;;13.40;99.90;;;;;;5025097;28;20045;-86
2023/06/07 06:33:54;;;;;;;13.23;4.28;;;13.60;99.90;;;;;;5025080;28;20057;-74
2023/06/07 06:36:21;;;;;;;10.68;3.28;;;13.60;99.90;;;;;;5024596;28;20124;-72
2023/06/07 06:38:46;;;;;;;9.88;3.50;;;13.70;99.90;;;;;;5026470;28;20041;-75
2023/06/07 06:41:13;;;;;;;13.20;3.67;;;13.80;99.90;;;;;;5024398;28;20449;-80
2023/06/07 06:43:38;;;;;;;10.50;3.50;;;13.80;99.90;;;;;;5023702;28;20049;-77
2023/06/07 06:46:04;;;;;;;12.00;3.60;;;13.80;99.90;;;;;;5028628;28;20048;-76
2023/06/07 06:48:30;;;;;;;12.75;3.85;;;13.80;99.90;;;;;;5024845;28;20650;-80
2023/06/07 06:50:55;;;;;;;11.50;3.80;;;13.80;99.90;;;;;;5022297;28;20034;-80
2023/06/07 06:53:21;;;;;;;16.38;3.83;;;13.80;99.90;;;;;;5014638;28;20045;-77
2023/06/07 06:55:48;;;;;;;13.55;4.22;;;13.80;99.90;;;;;;5018045;28;20103;-72
2023/06/07 06:58:13;;;;;;;13.55;4.25;;;13.80;99.90;;;;;;5018305;28;20050;-72
2023/06/07 07:00:39;;;;;;;16.20;4.55;;;13.80;99.90;;;;;;5019101;28;20119;-72
2023/06/07 07:03:05;;;;;;;17.23;4.25;;;13.90;99.90;;;;;;5019673;28;20076;-71
2023/06/07 07:05:31;;;;;;;10.70;4.30;;;13.90;99.90;;;;;;5001701;28;20060;-72
2023/06/07 07:07:57;;;;;;;12.73;4.43;;;14.00;99.90;;;;;;5021325;28;20057;-71
2023/06/07 07:10:22;;;;;;;11.88;4.47;;;14.00;99.90;;;;;;5019811;28;20424;-72
2023/06/07 07:12:48;;;;;;;12.23;3.88;;;14.10;99.90;;;;;;5018613;28;20049;-71
2023/06/07 07:15:14;;;;;;;9.88;4.20;;;14.20;99.90;;;;;;5016814;28;20980;-72
2023/06/07 07:17:47;;;;;;;11.95;3.47;;;14.30;99.90;;;;;;5019815;28;20053;-70
2023/06/07 07:20:14;;;;;;;12.00;4.25;;;14.40;99.90;;;;;;5018480;28;20045;-72
2023/06/07 07:22:40;;;;;;;13.65;4.40;;;14.50;99.90;;;;;;5020264;28;20049;-71
2023/06/07 07:25:06;;;;;;;13.65;4.88;;;14.60;99.90;;;;;;5023237;28;20042;-72
2023/06/07 07:27:33;;;;;;;14.18;3.65;;;14.70;99.90;;;;;;5018179;28;20485;-71
2023/06/07 07:29:59;;;;;;;15.00;4.13;;;15.00;99.90;;;;;;5022823;28;20053;-71
2023/06/07 07:32:25;;;;;;;15.32;4.80;;;15.30;99.90;;;;;;5010666;28;20041;-71
2023/06/07 07:34:50;;;;;;;12.75;3.60;;;15.30;99.90;;;;;;5022791;28;20096;-72
2023/06/07 07:37:17;;;;;;;11.85;3.60;;;15.30;99.90;;;;;;5019075;28;20034;-72
2023/06/07 07:39:42;;;;;;;14.70;4.20;;;15.20;99.90;;;;;;5022242;28;20397;-72
2023/06/07 07:42:08;;;;;;;10.18;4.00;;;15.10;99.90;;;;;;5025722;28;20038;-76
2023/06/07 07:44:34;;;;;;;12.73;4.00;;;15.20;99.90;;;;;;5014723;28;20041;-76
2023/06/07 07:47:00;;;;;;;15.55;4.05;;;15.20;99.90;;;;;;5019930;28;20076;-75
2023/06/07 07:49:28;;;;;;;11.30;4.38;;;15.30;99.90;;;;;;5027470;28;20080;-76
2023/06/07 07:51:54;;;;;;;14.50;4.63;;;15.20;99.90;;;;;;5018301;28;20556;-75
2023/06/07 07:54:22;;;;;;;16.00;4.30;;;15.30;99.90;;;;;;5021022;28;20061;-76
2023/06/07 07:56:47;;;;;;;16.48;4.28;;;15.30;99.90;;;;;;5002519;28;20041;-75
2023/06/07 07:59:13;;;;;;;8.88;3.67;;;15.40;99.90;;;;;;5025264;28;20037;-76
2023/06/07 08:01:39;;;;;;;12.35;3.88;;;15.40;99.90;;;;;;5021571;28;20048;-76
2023/06/07 08:04:05;;;;;;;11.98;4.00;;;15.50;99.90;;;;;;5019774;28;20049;-76
2023/06/07 08:06:30;;;;;;;10.45;3.88;;;15.40;99.90;;;;;;5019187;28;20133;-76
2023/06/07 08:08:56;;;;;;;14.65;4.55;;;15.60;99.90;;;;;;5015326;28;20037;-76
2023/06/07 08:11:23;;;;;;;11.35;3.90;;;15.60;99.90;;;;;;4996669;28;20499;-77
2023/06/07 08:13:48;;;;;;;13.63;3.78;;;15.60;99.90;;;;;;5019159;28;20775;-77
2023/06/07 08:16:14;;;;;;;13.75;3.95;;;15.70;99.90;;;;;;5025816;28;20120;-78
2023/06/07 08:18:40;;;;;;;11.82;4.63;;;15.80;99.90;;;;;;5019971;28;20120;-77
2023/06/07 08:21:06;;;;;;;13.43;4.15;;;15.90;99.90;;;;;;5020370;28;20049;-77
2023/06/07 08:23:31;;;;;;;13.23;4.75;;;16.00;99.90;;;;;;5027137;28;20441;-76
2023/06/07 08:25:58;;;;;;;12.93;4.72;;;16.20;99.90;;;;;;5023618;28;20488;-78
2023/06/07 08:28:24;;;;;;;13.98;4.60;;;16.30;99.90;;;;;;5006805;28;20240;-77
2023/06/07 08:30:50;;;;;;;10.77;4.93;;;16.50;99.90;;;;;;5006672;28;20292;-77
2023/06/07 08:33:18;;;;;;;10.32;4.32;;;16.50;99.90;;;;;;5019914;28;20111;-77
2023/06/07 08:35:44;;;;;;;12.13;4.97;;;16.50;99.90;;;;;;5012212;28;20457;-76
2023/06/07 08:38:10;;;;;;;16.20;5.88;;;16.60;99.90;;;;;;5018892;28;20049;-77
2023/06/07 08:40:38;;;;;;;14.45;4.43;;;16.70;99.90;;;;;;5017097;28;20389;-77
2023/06/07 08:43:04;;;;;;;9.43;4.45;;;16.80;99.90;;;;;;5023403;28;20048;-77
2023/06/07 08:45:30;;;;;;;12.77;4.13;;;16.80;99.90;;;;;;5011207;28;20045;-76
2023/06/07 08:47:58;;;;;;;12.35;4.78;;;16.70;99.90;;;;;;5003705;28;20095;-77
2023/06/07 08:50:24;;;;;;;12.20;4.32;;;16.80;99.90;;;;;;5006398;28;20044;-77
2023/06/07 08:52:54;;;;;;;15.25;5.03;;;17.00;99.90;;;;;;5009921;28;20041;-77
2023/06/07 08:55:21;;;;;;;15.70;4.80;;;17.20;99.90;;;;;;5009441;28;20080;-77
2023/06/07 08:57:52;;;;;;;14.10;4.50;;;17.30;99.90;;;;;;5007633;28;20573;-76
2023/06/07 09:00:22;;;;;;;18.17;4.78;;;17.50;99.90;;;;;;5009431;28;20041;-77
2023/06/07 09:02:51;;;;;;;13.45;4.75;;;17.60;99.90;;;;;;5010592;28;20610;-77
2023/06/07 09:05:17;;;;;;;16.02;5.20;;;17.80;99.90;;;;;;5005271;28;20120;-77
2023/06/07 09:07:43;;;;;;;12.77;5.28;;;17.70;99.90;;;;;;5004843;28;20084;-77
2023/06/07 09:10:09;;;;;;;12.07;4.90;;;17.70;99.90;;;;;;5010065;28;20691;-77
2023/06/07 09:12:35;;;;;;;18.33;6.18;;;17.80;99.90;;;;;;5012461;28;20489;-79
2023/06/07 09:15:01;;;;;;;15.10;5.80;;;17.90;99.90;;;;;;5019485;28;20307;-81
2023/06/07 09:18:04;;;;;;;11.02;5.10;;;18.00;99.90;;;;;;5000921;28;20099;-75
2023/06/07 09:20:31;;;;;;;14.98;4.70;;;18.10;99.90;;;;;;5012625;28;20045;-80
2023/06/07 09:23:08;;;;;;;14.77;5.20;;;18.20;99.90;;;;;;5013488;28;20146;-80
2023/06/07 09:25:35;;;;;;;14.43;5.50;;;18.30;99.90;;;;;;5014391;28;20046;-83
2023/06/07 09:28:09;;;;;;;15.65;5.63;;;18.20;99.90;;;;;;5022088;28;20069;-80
2023/06/07 09:30:36;;;;;;;12.98;4.88;;;18.20;99.90;;;;;;5016250;28;20041;-78
2023/06/07 09:33:03;;;;;;;15.85;5.43;;;18.30;99.90;;;;;;5018487;28;20068;-78
2023/06/07 09:35:28;;;;;;;11.50;4.88;;;18.40;99.90;;;;;;5003464;28;20052;-79
2023/06/07 09:37:59;;;;;;;14.45;5.72;;;18.50;99.90;;;;;;5020470;28;20037;-74
2023/06/07 09:40:25;;;;;;;13.02;5.18;;;18.70;99.90;;;;;;4996293;28;20112;-79
2023/06/07 09:42:58;;;;;;;13.57;5.53;;;18.80;99.90;;;;;;5016086;28;20394;-77
2023/06/07 09:45:28;;;;;;;17.02;5.10;;;18.80;99.90;;;;;;5005615;28;20057;-77
2023/06/07 09:48:04;;;;;;;;;;;18.90;99.90;;;;;;5012484;28;20061;-77
2023/06/07 09:50:30;;;;;;;13.52;4.78;;;19.00;99.90;;;;;;5013041;28;20191;-76
2023/06/07 09:52:56;;;;;;;13.10;4.53;;;19.00;99.90;;;;;;5019568;28;20340;-76
2023/06/07 09:55:27;;;;;;;12.27;4.13;;;19.10;99.90;;;;;;5015364;28;20103;-77
2023/06/07 09:57:52;;;;;;;13.98;4.75;;;18.90;99.90;;;;;;5013175;28;20497;-75
2023/06/07 10:00:19;;;;;;;11.90;4.90;;;18.90;99.90;;;;;;5018315;28;20038;-77
2023/06/07 10:02:52;;;;;;;15.02;4.43;;;19.00;99.90;;;;;;5023309;28;20048;-76
2023/06/07 10:05:21;;;;;;;11.18;3.92;;;19.00;99.90;;;;;;5024878;28;20057;-76
2023/06/07 10:07:49;;;;;;;13.05;4.78;;;19.10;99.90;;;;;;5014310;28;20053;-76
2023/06/07 10:10:21;;;;;;;15.10;5.05;;;19.20;99.90;;;;;;5001896;28;20042;-75
2023/06/07 10:12:51;;;;;;;11.63;4.53;;;19.00;99.90;;;;;;5023884;28;20037;-75
2023/06/07 10:15:24;;;;;;;14.23;4.78;;;19.00;99.90;;;;;;5028857;28;20041;-76
2023/06/07 10:17:55;;;;;;;13.90;4.68;;;19.10;99.90;;;;;;5015501;28;20045;-75
2023/06/07 10:20:28;;;;;;;15.63;4.75;;;19.30;99.90;;;;;;5016552;28;21482;-76
2023/06/07 10:22:57;;;;;;;;;;;19.40;99.90;;;;;;5022316;28;20053;-76
2023/06/07 10:25:27;;;;;;;15.48;4.68;;;19.40;99.90;;;;;;5007688;28;19921;-76
2023/06/07 10:28:02;;;;;;;12.40;4.18;;;19.40;99.90;;;;;;5020105;28;20045;-76
2023/06/07 10:30:31;;;;;;;15.55;5.05;;;19.40;99.90;;;;;;5023973;28;20045;-76
2023/06/07 10:32:58;;;;;;;12.90;4.30;;;19.50;99.90;;;;;;5020174;28;20680;-77
2023/06/07 10:35:25;;;;;;;11.65;4.25;;;19.50;99.90;;;;;;5025382;28;20070;-75
2023/06/07 10:37:53;;;;;;;12.63;4.55;;;19.60;99.90;;;;;;5027007;28;20554;-75
2023/06/07 10:40:22;;;;;;;11.15;5.50;;;19.60;99.90;;;;;;5021335;28;20145;-76
2023/06/07 10:42:52;;;;;;;10.65;4.57;;;19.70;99.90;;;;;;5021502;28;20275;-76
2023/06/07 10:45:19;;;;;;;14.52;5.32;;;19.80;99.90;;;;;;5015843;28;20045;-76
2023/06/07 10:47:48;;;;;;;13.20;4.90;;;19.90;99.90;;;;;;5023448;28;20046;-77
2023/06/07 10:50:32;;;;;;;12.23;4.72;;;20.00;99.90;;;;;;5027015;28;20052;-77
2023/06/07 10:52:59;;;;;;;13.43;4.95;;;20.10;99.90;;;;;;5024121;28;20123;-76
2023/06/07 10:55:26;;;;;;;11.75;4.65;;;20.10;99.90;;;;;;5028131;28;20045;-77
2023/06/07 10:57:53;;;;;;;14.02;4.78;;;20.00;99.90;;;;;;5023840;28;20527;-76
2023/06/07 11:00:29;;;;;;;13.43;4.65;;;19.90;99.90;;;;;;5015949;28;20040;-75
2023/06/07 11:03:16;;;;;;;12.55;4.40;;;19.90;99.90;;;;;;5012196;28;20053;-76
2023/06/07 11:05:53;;;;;;;13.02;5.55;;;19.80;99.90;;;;;;5016341;28;20061;-76
2023/06/07 11:08:29;;;;;;;14.90;5.03;;;19.90;99.90;;;;;;5012906;28;20644;-76
2023/06/07 11:10:59;;;;;;;9.40;4.40;;;19.80;99.90;;;;;;5008933;28;20099;-76
2023/06/07 11:13:43;;;;;;;13.07;4.85;;;19.90;99.90;;;;;;5010832;28;20381;-76
2023/06/07 11:16:24;;;;;;;14.10;5.15;;;19.90;99.90;;;;;;5005307;28;20702;-75
2023/06/07 11:18:57;;;;;;;14.63;5.20;;;20.00;99.90;;;;;;5015990;28;20136;-75
2023/06/07 11:21:29;;;;;;;15.10;5.75;;;20.00;99.90;;;;;;5017073;28;20052;-76
2023/06/07 11:24:14;;;;;;;10.43;4.97;;;20.00;99.90;;;;;;5023278;28;20041;-75
2023/06/07 11:26:40;;;;;;;12.43;5.20;;;20.10;99.90;;;;;;5015006;28;20407;-76
2023/06/07 11:29:08;;;;;;;16.80;5.10;;;20.20;99.90;;;;;;5025989;28;20095;-75
2023/06/07 11:31:34;;;;;;;11.88;5.20;;;20.30;99.90;;;;;;5015644;28;20091;-75
2023/06/07 11:34:00;;;;;;;21.98;6.38;;;20.20;99.90;;;;;;5018753;28;20508;-76
2023/06/07 11:36:31;;;;;;;13.48;5.22;;;20.30;99.90;;;;;;5010164;28;20136;-76
2023/06/07 11:38:59;;;;;;;13.63;5.18;;;20.20;99.90;;;;;;5020819;28;20692;-76
2023/06/07 11:41:25;;;;;;;12.27;5.00;;;20.20;99.90;;;;;;5024556;28;20572;-75
2023/06/07 11:43:51;;;;;;;15.13;4.80;;;20.30;99.90;;;;;;5019941;28;20179;-77
2023/06/07 11:46:17;;;;;;;14.40;5.47;;;20.40;99.90;;;;;;4994702;28;20386;-78
2023/06/07 11:48:43;;;;;;;11.30;5.88;;;20.20;99.90;;;;;;5020282;28;20117;-77
2023/06/07 11:51:09;;;;;;;10.82;5.65;;;20.20;99.90;;;;;;5013710;28;20359;-77
2023/06/07 11:53:35;;;;;;;13.38;5.60;;;20.30;99.90;;;;;;5014237;28;20053;-76
2023/06/07 11:56:02;;;;;;;10.90;4.97;;;20.30;99.90;;;;;;5018422;28;20053;-75
2023/06/07 11:58:28;;;;;;;16.15;6.00;;;20.50;99.90;;;;;;5011831;28;20049;-77
2023/06/07 12:00:56;;;;;;;13.05;5.10;;;20.50;99.90;;;;;;5001524;28;20041;-76
2023/06/07 12:03:22;;;;;;;17.95;5.43;;;20.50;99.90;;;;;;5015377;28;20507;-76
2023/06/07 12:05:48;;;;;;;12.15;5.03;;;20.50;99.90;;;;;;5001967;28;20301;-76
2023/06/07 12:08:16;;;;;;;12.95;6.10;;;20.40;99.90;;;;;;5019774;28;20420;-77
2023/06/07 12:10:45;;;;;;;15.90;5.55;;;20.40;99.90;;;;;;5020439;28;20052;-77
2023/06/07 12:13:21;;;;;;;15.63;5.78;;;20.30;99.90;;;;;;5011350;28;20041;-76
2023/06/07 12:15:52;;;;;;;13.15;5.70;;;20.30;99.90;;;;;;5017387;28;20033;-76
2023/06/07 12:18:28;;;;;;;13.95;5.22;;;20.30;99.90;;;;;;5020187;28;20044;-77
2023/06/07 12:21:11;;;;;;;15.25;5.70;;;20.30;99.90;;;;;;5023496;28;20405;-77
2023/06/07 12:23:38;;;;;;;11.43;5.10;;;20.40;99.90;;;;;;5018428;28;20136;-77
2023/06/07 12:26:21;;;;;;;13.45;6.43;;;20.30;99.90;;;;;;5014924;28;20050;-76
2023/06/07 12:28:53;;;;;;;12.95;5.72;;;20.30;99.90;;;;;;5019987;28;20053;-76
2023/06/07 12:31:19;;;;;;;12.50;5.55;;;20.30;99.90;;;;;;5017758;28;21089;-77
2023/06/07 12:33:59;;;;;;;10.90;4.22;;;20.40;99.90;;;;;;5013345;28;20049;-77
2023/06/07 12:36:33;;;;;;;12.60;5.38;;;20.40;99.90;;;;;;5011902;28;20509;-77
2023/06/07 12:39:00;;;;;;;10.30;4.45;;;20.40;99.90;;;;;;5014803;28;20532;-77
2023/06/07 12:41:28;;;;;;;12.25;4.93;;;20.30;99.90;;;;;;5017690;28;20041;-76